Time;durP1;ratioP1;P1;durP2;ratioP2;P2;SDS_P1;SDS_P2;PMS_P1;PMS_P2;Temp;Humidity;BMP_temperature;BMP_pressure;BME280_temperature;BME280_humidity;BME280_pressure;Samples;Min_cycle;Max_cycle;Signal;HPM_P1;HPM_P2
2023/08/26 00:00:41;;;;;;;11.70;10.50;;;;;;;27.91;50.27;100591.41;5033630;28;20483;-56
2023/08/26 00:03:08;;;;;;;10.82;9.75;;;;;;;27.92;50.46;100584.94;5037557;28;20049;-56
2023/08/26 00:05:36;;;;;;;11.23;10.20;;;;;;;27.93;50.55;100587.47;5045100;28;20046;-56
2023/08/26 00:08:03;;;;;;;10.80;9.65;;;;;;;27.95;50.32;100573.66;5033582;28;20492;-49
2023/08/26 00:10:31;;;;;;;11.60;10.45;;;;;;;27.97;50.17;100577.88;5033903;28;20064;-49
2023/08/26 00:12:58;;;;;;;10.63;9.52;;;;;;;27.98;50.23;100578.72;5034235;28;20052;-49
2023/08/26 00:15:25;;;;;;;12.18;10.95;;;;;;;28.00;50.47;100580.22;5033560;28;20053;-49
2023/08/26 00:17:53;;;;;;;12.00;9.75;;;;;;;28.01;50.39;100573.72;5034108;28;20045;-49
2023/08/26 00:20:21;;;;;;;11.05;9.98;;;;;;;28.03;50.41;100568.91;5037075;28;20495;-50
2023/08/26 00:22:48;;;;;;;10.27;9.32;;;;;;;28.04;50.01;100570.63;5038271;28;20041;-50
2023/08/26 00:25:16;;;;;;;11.07;9.95;;;;;;;28.04;50.28;100570.63;5037365;28;20045;-49
2023/08/26 00:27:43;;;;;;;10.52;9.32;;;;;;;28.06;49.84;100567.69;5037069;28;20052;-48
2023/08/26 00:30:11;;;;;;;11.45;10.07;;;;;;;28.07;50.05;100575.66;5035188;28;20068;-48
2023/08/26 00:32:38;;;;;;;10.23;9.23;;;;;;;28.09;50.17;100562.69;5036008;28;20061;-48
2023/08/26 00:35:10;;;;;;;11.07;10.07;;;;;;;28.09;49.82;100559.97;5035723;28;20049;-47
2023/08/26 00:37:37;;;;;;;11.07;10.07;;;;;;;28.12;49.89;100563.34;5035246;28;20053;-54
2023/08/26 00:40:05;;;;;;;10.95;9.95;;;;;;;28.14;50.17;100553.09;5036644;28;20548;-55
2023/08/26 00:42:36;;;;;;;10.88;9.77;;;;;;;28.15;49.98;100552.06;5041839;28;20053;-55
2023/08/26 00:45:05;;;;;;;11.27;10.15;;;;;;;28.15;49.50;100562.94;5045408;28;20054;-55
2023/08/26 00:47:36;;;;;;;12.00;10.70;;;;;;;28.17;49.95;100566.31;5048640;28;20072;-55
2023/08/26 00:50:04;;;;;;;10.45;9.45;;;;;;;28.18;49.88;100562.56;5040140;28;20045;-56
2023/08/26 00:52:32;;;;;;;11.95;10.57;;;;;;;28.19;49.60;100558.78;5048671;28;20057;-55
2023/08/26 00:54:59;;;;;;;10.38;9.35;;;;;;;28.19;49.93;100546.00;5044744;28;20048;-55
2023/08/26 00:57:26;;;;;;;9.75;8.85;;;;;;;28.20;49.89;100555.06;5042011;28;20464;-56
2023/08/26 00:59:54;;;;;;;10.52;9.25;;;;;;;28.23;49.50;100554.63;5049760;28;20044;-48
2023/08/26 01:02:21;;;;;;;11.60;9.63;;;;;;;28.23;49.82;100550.03;5050806;28;20065;-50
2023/08/26 01:04:49;;;;;;;10.23;9.20;;;;;;;28.24;49.41;100540.00;5035047;28;20049;-48
2023/08/26 01:07:17;;;;;;;10.10;9.10;;;;;;;28.26;49.35;100543.34;5049882;28;20393;-48
2023/08/26 01:09:44;;;;;;;9.88;8.88;;;;;;;28.25;49.89;100539.81;5039163;28;20049;-48
2023/08/26 01:12:39;;;;;;;10.63;9.52;;;;;;;28.28;49.54;100552.19;5034697;28;20060;-48
2023/08/26 01:15:13;;;;;;;10.23;9.23;;;;;;;28.29;49.65;100537.53;5041604;28;20050;-49
2023/08/26 01:17:41;;;;;;;10.55;9.55;;;;;;;28.29;49.86;100532.06;5050623;28;20069;-55
2023/08/26 01:20:09;;;;;;;10.90;9.80;;;;;;;28.29;49.77;100522.03;5036531;28;20060;-56
2023/08/26 01:22:40;;;;;;;10.25;9.25;;;;;;;28.31;49.38;100535.44;5034833;28;20507;-56
2023/08/26 01:25:07;;;;;;;10.60;9.60;;;;;;;28.31;49.75;100529.97;5034156;28;20054;-56
2023/08/26 01:27:35;;;;;;;10.38;9.38;;;;;;;28.33;49.72;100527.91;5035247;28;20045;-56
2023/08/26 01:30:03;;;;;;;10.82;9.80;;;;;;;28.33;49.47;100525.19;5034447;28;20072;-56
2023/08/26 01:33:00;;;;;;;10.07;9.15;;;;;;;28.34;49.27;100521.44;5033772;28;20552;-56
2023/08/26 01:35:35;;;;;;;9.98;8.98;;;;;;;28.35;49.38;100521.22;5032691;28;20072;-56
2023/08/26 01:38:03;;;;;;;10.93;9.25;;;;;;;28.36;49.55;100519.41;5046316;28;20060;-48
2023/08/26 01:40:33;;;;;;;10.18;9.25;;;;;;;28.36;49.31;100516.66;5036027;28;20061;-48
2023/08/26 01:43:03;;;;;;;9.52;8.65;;;;;;;28.38;49.54;100511.00;5035350;28;20049;-48
2023/08/26 01:45:30;;;;;;;9.40;8.40;;;;;;;28.38;49.58;100506.41;5035843;28;20046;-49
2023/08/26 01:48:00;;;;;;;10.00;8.75;;;;;;;28.39;49.50;100510.81;5034236;28;20045;-49
2023/08/26 01:50:27;;;;;;;9.40;8.50;;;;;;;28.40;49.58;100504.34;5034262;28;20061;-49
2023/08/26 01:52:55;;;;;;;9.98;9.07;;;;;;;28.41;49.11;100497.00;5035641;28;20053;-50
2023/08/26 01:55:22;;;;;;;10.05;9.13;;;;;;;28.41;49.03;100499.72;5034453;28;20414;-50
2023/08/26 01:57:49;;;;;;;10.30;8.80;;;;;;;28.43;49.50;100498.47;5033578;28;20072;-56
2023/08/26 02:00:17;;;;;;;10.40;9.30;;;;;;;28.42;49.16;100499.53;5034112;28;20060;-56
2023/08/26 02:02:44;;;;;;;10.93;9.82;;;;;;;28.44;49.32;100499.31;5035362;28;20045;-56
2023/08/26 02:05:12;;;;;;;9.98;9.07;;;;;;;28.44;49.34;100493.88;5035629;28;20402;-56
2023/08/26 02:07:39;;;;;;;9.98;8.98;;;;;;;28.44;49.46;100500.19;5035375;28;20049;-49
2023/08/26 02:10:07;;;;;;;9.40;8.50;;;;;;;28.45;49.46;100499.13;5033045;28;20414;-48
2023/08/26 02:12:35;;;;;;;9.73;8.90;;;;;;;28.45;49.04;100501.84;5033526;28;20049;-48
2023/08/26 02:15:03;;;;;;;10.05;8.85;;;;;;;28.46;49.08;100499.97;5035799;28;20045;-49
2023/08/26 02:17:30;;;;;;;9.18;8.27;;;;;;;28.47;49.21;100496.19;5034773;28;20404;-56
2023/08/26 02:19:57;;;;;;;9.75;8.85;;;;;;;28.47;49.13;100496.19;5033697;28;20053;-56
2023/08/26 02:22:25;;;;;;;9.93;9.02;;;;;;;28.49;49.30;100497.69;5035171;28;20056;-56
2023/08/26 02:24:52;;;;;;;10.00;9.10;;;;;;;28.48;49.00;100503.31;5048917;28;20048;-56
2023/08/26 02:27:20;;;;;;;10.10;9.10;;;;;;;28.49;49.33;100505.03;5033277;28;20411;-53
2023/08/26 02:29:47;;;;;;;10.50;9.50;;;;;;;28.49;49.20;100511.31;5035865;28;20088;-51
2023/08/26 02:32:15;;;;;;;10.23;9.18;;;;;;;28.50;49.00;100503.97;5035058;28;20057;-49
2023/08/26 02:34:42;;;;;;;10.02;9.02;;;;;;;28.50;49.17;100510.25;5046930;28;20053;-48
2023/08/26 02:37:10;;;;;;;10.70;9.60;;;;;;;28.52;48.74;100513.63;5032864;28;20049;-50
2023/08/26 02:39:38;;;;;;;9.15;8.23;;;;;;;28.53;49.25;100517.19;5035126;28;20419;-55
2023/08/26 02:42:05;;;;;;;10.27;8.98;;;;;;;28.53;49.09;100515.31;5035848;28;20049;-55
2023/08/26 02:44:33;;;;;;;9.68;8.77;;;;;;;28.53;49.23;100517.19;5047867;28;20056;-55
2023/08/26 02:47:00;;;;;;;10.10;9.13;;;;;;;28.55;48.79;100521.38;5043082;28;20037;-55
2023/08/26 02:49:29;;;;;;;9.32;8.50;;;;;;;28.54;48.82;100524.31;5039202;28;20054;-55
2023/08/26 02:51:56;;;;;;;11.18;9.82;;;;;;;28.56;49.18;100539.44;5047939;28;20393;-56
2023/08/26 02:54:24;;;;;;;10.32;9.25;;;;;;;28.56;49.21;100533.97;5038347;28;20056;-56
2023/08/26 02:56:52;;;;;;;9.40;8.48;;;;;;;28.55;49.09;100532.28;5043891;28;20037;-55
2023/08/26 02:59:21;;;;;;;9.00;8.10;;;;;;;28.56;48.79;100542.16;5046100;28;20060;-56
2023/08/26 03:01:58;;;;;;;9.52;8.63;;;;;;;28.57;49.14;100534.81;5036889;28;20053;-55
2023/08/26 03:04:26;;;;;;;10.40;9.40;;;;;;;28.57;49.13;100541.09;5046664;28;20049;-56
2023/08/26 03:06:53;;;;;;;9.73;8.70;;;;;;;28.58;49.02;100545.50;5044700;28;20495;-56
2023/08/26 03:09:20;;;;;;;9.48;8.48;;;;;;;28.58;48.92;100544.66;5037691;28;20408;-55
2023/08/26 03:11:48;;;;;;;9.95;9.05;;;;;;;28.59;49.00;100552.63;5034688;28;20055;-55
2023/08/26 03:14:15;;;;;;;10.50;9.45;;;;;;;28.59;49.01;100541.72;5034638;28;20041;-55
2023/08/26 03:16:44;;;;;;;9.63;8.73;;;;;;;28.60;48.90;100528.94;5031872;28;20546;-56
2023/08/26 03:19:13;;;;;;;10.20;9.20;;;;;;;28.61;48.87;100532.53;5033458;28;20069;-48
2023/08/26 03:21:40;;;;;;;10.10;9.20;;;;;;;28.61;48.65;100533.38;5031494;28;20072;-48
2023/08/26 03:24:11;;;;;;;10.00;9.00;;;;;;;28.62;48.67;100535.03;5032125;28;20053;-49
2023/08/26 03:26:38;;;;;;;9.80;8.90;;;;;;;28.63;48.53;100539.44;5032139;28;20064;-48
2023/08/26 03:29:06;;;;;;;9.98;8.98;;;;;;;28.63;48.90;100536.72;5031602;28;20057;-48
2023/08/26 03:31:33;;;;;;;9.00;8.20;;;;;;;28.63;49.01;100539.44;5033325;28;20053;-48
2023/08/26 03:34:01;;;;;;;9.63;8.73;;;;;;;28.64;48.60;100538.41;5032518;28;20423;-51
2023/08/26 03:36:29;;;;;;;9.40;8.50;;;;;;;28.65;49.02;100533.81;5031714;28;20064;-49
2023/08/26 03:38:57;;;;;;;9.52;8.52;;;;;;;28.65;48.73;100544.72;5031752;28;20520;-48
2023/08/26 03:41:24;;;;;;;10.10;9.00;;;;;;;28.64;48.96;100546.56;5033054;28;20048;-49
2023/08/26 03:43:52;;;;;;;8.82;8.02;;;;;;;28.66;48.96;100560.00;5039816;28;20060;-49
2023/08/26 03:46:19;;;;;;;9.65;8.75;;;;;;;28.65;48.68;100569.22;5041582;28;20052;-50
2023/08/26 03:48:46;;;;;;;9.68;8.77;;;;;;;28.66;48.87;100573.63;5033733;28;20049;-51
2023/08/26 03:51:14;;;;;;;9.50;8.60;;;;;;;28.66;48.51;100566.28;5035943;28;20045;-49
2023/08/26 03:53:41;;;;;;;9.48;8.57;;;;;;;28.66;48.46;100562.72;5045531;28;20053;-49
2023/08/26 03:56:13;;;;;;;8.90;8.10;;;;;;;28.67;48.81;100561.69;5049663;28;20052;-48
2023/08/26 03:58:41;;;;;;;9.25;8.35;;;;;;;28.67;48.37;100569.84;5040052;28;20048;-56
2023/08/26 04:01:08;;;;;;;9.90;9.00;;;;;;;28.67;48.56;100578.84;5040691;28;20049;-56
2023/08/26 04:03:36;;;;;;;10.25;9.15;;;;;;;28.67;48.24;100572.56;5048706;28;20053;-58
2023/08/26 04:06:04;;;;;;;10.88;9.70;;;;;;;28.66;48.10;100566.28;5049523;28;20049;-58
2023/08/26 04:08:32;;;;;;;9.48;8.57;;;;;;;28.66;48.16;100568.19;5039222;28;20041;-58
2023/08/26 04:11:01;;;;;;;10.38;9.40;;;;;;;28.65;47.85;100561.06;5040689;28;20049;-58
2023/08/26 04:13:29;;;;;;;11.43;9.60;;;;;;;28.66;48.06;100562.72;5046719;28;20534;-58
2023/08/26 04:15:56;;;;;;;9.70;8.80;;;;;;;28.66;47.52;100565.44;5037174;28;20042;-58
2023/08/26 04:18:25;;;;;;;10.27;9.23;;;;;;;28.65;47.93;100567.34;5037333;28;20042;-59
2023/08/26 04:20:52;;;;;;;9.95;9.00;;;;;;;28.66;47.76;100581.78;5041846;28;20045;-59
2023/08/26 04:23:20;;;;;;;9.50;8.55;;;;;;;28.66;47.84;100581.78;5047861;28;20053;-59
2023/08/26 04:25:47;;;;;;;10.70;9.70;;;;;;;28.66;47.92;100588.09;5035616;28;20053;-59
2023/08/26 04:28:15;;;;;;;10.15;9.20;;;;;;;28.65;47.33;100585.56;5035417;28;20060;-58
2023/08/26 04:30:45;;;;;;;10.48;9.45;;;;;;;28.64;47.46;100590.16;5037783;28;20053;-58
2023/08/26 04:33:12;;;;;;;10.23;8.93;;;;;;;28.64;47.50;100589.31;5035914;28;20076;-58
2023/08/26 04:35:39;;;;;;;10.18;9.27;;;;;;;28.63;47.52;100591.19;5035381;28;20053;-58
2023/08/26 04:38:07;;;;;;;10.00;9.10;;;;;;;28.64;47.40;100590.16;5035251;28;20500;-58
2023/08/26 04:40:34;;;;;;;9.75;8.85;;;;;;;28.64;47.33;100592.03;5040898;28;20072;-58
2023/08/26 04:43:03;;;;;;;9.68;8.77;;;;;;;28.64;47.15;100597.47;5047067;28;20050;-58
2023/08/26 04:45:31;;;;;;;10.38;9.38;;;;;;;28.63;47.05;100593.91;5049700;28;20052;-58
2023/08/26 04:47:58;;;;;;;10.18;9.18;;;;;;;28.65;47.39;100600.03;5038427;28;20049;-58
2023/08/26 04:50:26;;;;;;;10.85;9.75;;;;;;;28.65;47.39;100600.03;5042097;28;20060;-58
2023/08/26 04:52:53;;;;;;;10.13;9.18;;;;;;;28.64;47.09;100594.75;5045032;28;20061;-58
2023/08/26 04:55:21;;;;;;;10.25;9.25;;;;;;;28.65;46.92;100600.03;5036558;28;20048;-58
2023/08/26 04:57:48;;;;;;;10.57;9.35;;;;;;;28.65;46.97;100597.31;5039323;28;20502;-59
2023/08/26 05:00:16;;;;;;;10.70;9.70;;;;;;;28.66;46.99;100592.69;5049694;28;20492;-59
2023/08/26 05:02:45;;;;;;;9.95;9.05;;;;;;;28.66;47.27;100592.69;5044318;28;20052;-59
2023/08/26 05:05:13;;;;;;;11.18;10.18;;;;;;;28.65;47.33;100597.31;5041398;28;20487;-59
2023/08/26 05:07:41;;;;;;;10.57;9.48;;;;;;;28.64;46.77;100595.59;5035139;28;20061;-59
2023/08/26 05:10:08;;;;;;;10.25;9.25;;;;;;;28.64;46.80;100600.19;5048938;28;20495;-58
2023/08/26 05:12:35;;;;;;;10.43;9.25;;;;;;;28.63;46.63;100591.19;5036353;28;20072;-58
2023/08/26 05:15:04;;;;;;;10.45;9.45;;;;;;;28.64;47.03;100598.31;5036005;28;20046;-58
2023/08/26 05:17:31;;;;;;;10.90;9.38;;;;;;;28.63;46.50;100584.91;5034342;28;20064;-58
2023/08/26 05:19:59;;;;;;;10.45;9.45;;;;;;;28.63;46.33;100590.34;5047855;28;20076;-58
2023/08/26 05:22:26;;;;;;;10.27;9.38;;;;;;;28.63;46.68;100593.09;5035009;28;20050;-58
2023/08/26 05:24:54;;;;;;;10.43;9.43;;;;;;;28.62;46.68;100594.13;5034298;28;20056;-57
2023/08/26 05:27:22;;;;;;;10.32;9.30;;;;;;;28.63;46.73;100595.81;5050045;28;20483;-59
2023/08/26 05:29:50;;;;;;;10.98;9.88;;;;;;;28.61;46.74;100592.44;5050251;28;20042;-59
2023/08/26 05:32:18;;;;;;;10.82;9.73;;;;;;;28.62;46.48;100594.97;5034598;28;20054;-59
2023/08/26 05:34:47;;;;;;;9.60;8.68;;;;;;;28.63;46.86;100598.53;5034592;28;20076;-59
2023/08/26 05:37:14;;;;;;;11.35;10.20;;;;;;;28.65;46.65;100607.34;5035536;28;20072;-59
2023/08/26 05:39:43;;;;;;;11.57;9.35;;;;;;;28.64;47.07;100605.66;5041857;28;20479;-59
2023/08/26 05:42:10;;;;;;;10.02;9.13;;;;;;;28.63;46.44;100599.38;5043275;28;20050;-59
2023/08/26 05:44:39;;;;;;;10.18;8.65;;;;;;;28.63;46.43;100604.81;5035389;28;20049;-59
2023/08/26 05:47:07;;;;;;;10.43;9.43;;;;;;;28.62;46.83;100608.59;5033946;28;20049;-59
2023/08/26 05:49:35;;;;;;;10.82;9.68;;;;;;;28.61;46.33;100606.06;5034588;28;20041;-58
2023/08/26 05:52:03;;;;;;;11.00;9.90;;;;;;;28.61;46.44;100603.34;5034349;28;20049;-58
2023/08/26 05:54:30;;;;;;;10.80;9.80;;;;;;;28.61;46.92;100597.91;5033965;28;20053;-57
2023/08/26 05:56:57;;;;;;;10.50;9.50;;;;;;;28.63;47.11;100601.25;5036462;28;20518;-57
2023/08/26 05:59:25;;;;;;;10.10;9.20;;;;;;;28.63;46.89;100603.97;5046876;28;20045;-59
2023/08/26 06:01:53;;;;;;;10.10;9.10;;;;;;;28.63;47.23;100613.00;5034164;28;20399;-59
2023/08/26 06:04:20;;;;;;;10.35;9.32;;;;;;;28.64;46.73;100614.66;5034618;28;20053;-59
2023/08/26 06:06:48;;;;;;;10.88;9.75;;;;;;;28.66;47.30;100617.22;5032941;28;20053;-59
2023/08/26 06:09:16;;;;;;;12.15;10.55;;;;;;;28.66;47.14;100609.03;5033473;28;20045;-58
2023/08/26 06:11:44;;;;;;;10.05;9.15;;;;;;;28.69;47.49;100614.09;5033384;28;20061;-58
2023/08/26 06:14:12;;;;;;;10.93;9.90;;;;;;;28.69;47.36;100620.38;5032954;28;20056;-58
2023/08/26 06:16:39;;;;;;;10.77;9.77;;;;;;;28.70;47.34;100619.31;5032649;28;20064;-58
2023/08/26 06:19:07;;;;;;;10.43;9.38;;;;;;;28.70;47.45;100611.16;5033126;28;20054;-58
2023/08/26 06:21:36;;;;;;;9.57;8.68;;;;;;;28.71;47.56;100606.53;5033509;28;20049;-58
2023/08/26 06:24:03;;;;;;;10.75;9.75;;;;;;;28.71;47.38;100609.28;5032748;28;20057;-58
2023/08/26 06:26:31;;;;;;;10.40;9.30;;;;;;;28.71;47.49;100612.84;5034159;28;20495;-58
2023/08/26 06:28:58;;;;;;;10.13;9.10;;;;;;;28.73;47.59;100621.66;5040115;28;20048;-59
2023/08/26 06:31:28;;;;;;;10.95;9.95;;;;;;;28.73;47.72;100615.38;5041425;28;20508;-59
2023/08/26 06:33:56;;;;;;;12.02;10.90;;;;;;;28.74;47.63;100619.78;5047895;28;20053;-59
2023/08/26 06:36:23;;;;;;;10.50;9.40;;;;;;;28.75;47.38;100624.19;5046552;28;20060;-59
2023/08/26 06:38:51;;;;;;;11.52;10.32;;;;;;;28.74;47.46;100617.06;5042750;28;20061;-59
2023/08/26 06:41:18;;;;;;;10.63;9.63;;;;;;;28.75;48.00;100611.38;5041209;28;20060;-59
2023/08/26 06:43:46;;;;;;;10.52;9.52;;;;;;;28.75;48.10;100618.72;5047887;28;20055;-59
2023/08/26 06:46:21;;;;;;;11.27;10.18;;;;;;;28.77;48.54;100631.13;5035707;28;20062;-59
2023/08/26 06:48:48;;;;;;;12.05;10.63;;;;;;;28.77;48.75;100639.28;5040779;28;20047;-59
2023/08/26 06:51:16;;;;;;;12.52;11.25;;;;;;;28.77;49.61;100644.75;5041270;28;20396;-59
2023/08/26 06:53:43;;;;;;;12.75;11.55;;;;;;;28.78;49.59;100642.84;5032440;28;20046;-60
2023/08/26 06:56:11;;;;;;;12.55;11.35;;;;;;;28.79;50.34;100639.91;5033295;28;20053;-59
2023/08/26 06:58:38;;;;;;;12.05;10.77;;;;;;;28.81;49.63;100640.56;5034491;28;20049;-58
2023/08/26 07:01:05;;;;;;;12.27;11.05;;;;;;;28.83;49.80;100637.66;5034213;28;20516;-58
2023/08/26 07:03:33;;;;;;;12.20;11.00;;;;;;;28.85;49.75;100646.47;5034426;28;20049;-58
2023/08/26 07:06:00;;;;;;;11.25;10.07;;;;;;;28.87;49.58;100638.94;5034458;28;20049;-58
2023/08/26 07:08:28;;;;;;;12.68;11.38;;;;;;;28.89;49.58;100636.88;5034584;28;20578;-58
2023/08/26 07:10:55;;;;;;;12.10;10.98;;;;;;;28.91;49.78;100647.56;5032373;28;20380;-58
2023/08/26 07:13:22;;;;;;;11.82;10.68;;;;;;;28.92;49.58;100643.78;5034143;28;20053;-58
2023/08/26 07:15:49;;;;;;;12.32;11.05;;;;;;;28.95;50.05;100640.66;5034410;28;20459;-58
2023/08/26 07:18:17;;;;;;;11.43;10.40;;;;;;;28.96;49.81;100642.34;5033930;28;20498;-58
2023/08/26 07:20:47;;;;;;;11.82;10.63;;;;;;;28.98;50.22;100637.56;5034083;28;20053;-58
2023/08/26 07:23:14;;;;;;;11.07;10.07;;;;;;;28.99;49.78;100636.53;5034087;28;20056;-58
2023/08/26 07:25:41;;;;;;;12.32;10.65;;;;;;;29.01;50.37;100631.72;5034517;28;20041;-58
2023/08/26 07:28:09;;;;;;;11.75;10.57;;;;;;;29.02;50.08;100625.22;5042125;28;20071;-59
2023/08/26 07:30:37;;;;;;;12.02;10.88;;;;;;;29.03;50.24;100632.34;5040521;28;20391;-58
2023/08/26 07:33:04;;;;;;;12.65;10.70;;;;;;;29.04;50.71;100625.84;5033915;28;20046;-59
2023/08/26 07:35:31;;;;;;;10.77;9.68;;;;;;;29.05;50.78;100625.66;5034172;28;20076;-59
2023/08/26 07:37:59;;;;;;;12.30;11.05;;;;;;;29.06;51.03;100621.88;5033636;28;20054;-59
2023/08/26 07:40:27;;;;;;;11.57;10.50;;;;;;;29.08;51.12;100619.78;5033723;28;20055;-59
2023/08/26 07:42:55;;;;;;;11.27;10.18;;;;;;;29.09;51.25;100620.66;5033524;28;20042;-59
2023/08/26 07:45:22;;;;;;;11.52;10.43;;;;;;;29.10;51.45;100614.16;5034226;28;20487;-59
2023/08/26 07:47:50;;;;;;;10.57;9.52;;;;;;;29.12;51.42;100616.66;5034121;28;20045;-58
2023/08/26 07:50:20;;;;;;;11.90;10.80;;;;;;;29.14;51.61;100620.06;5033879;28;20052;-58
2023/08/26 07:52:47;;;;;;;10.60;9.60;;;;;;;29.16;51.71;100631.56;5033363;28;20072;-58
2023/08/26 07:55:15;;;;;;;12.57;11.02;;;;;;;29.17;52.36;100623.22;5034274;28;20048;-58
2023/08/26 07:57:42;;;;;;;11.70;10.63;;;;;;;29.18;52.51;100621.31;5033975;28;20057;-59
2023/08/26 08:00:10;;;;;;;11.55;10.40;;;;;;;29.19;52.43;100623.00;5034027;28;20038;-59
2023/08/26 08:02:41;;;;;;;12.38;11.18;;;;;;;29.21;53.02;100618.16;5033914;28;20049;-59
2023/08/26 08:05:09;;;;;;;11.63;10.52;;;;;;;29.22;52.45;100619.88;5032922;28;20061;-59
2023/08/26 08:07:36;;;;;;;11.07;10.07;;;;;;;29.22;52.64;100618.00;5034498;28;20057;-58
2023/08/26 08:10:04;;;;;;;12.25;11.02;;;;;;;29.23;53.17;100611.47;5033602;28;20045;-58
2023/08/26 08:12:32;;;;;;;10.95;9.95;;;;;;;29.25;52.83;100611.28;5035967;28;20056;-58
2023/08/26 08:14:59;;;;;;;11.43;10.32;;;;;;;29.26;52.81;100621.16;5046864;28;20045;-58
2023/08/26 08:17:28;;;;;;;11.20;10.20;;;;;;;29.27;53.32;100615.50;5042853;28;20045;-58
2023/08/26 08:19:56;;;;;;;11.70;10.60;;;;;;;29.28;52.98;100602.69;5038676;28;20049;-58
2023/08/26 08:22:39;;;;;;;11.65;10.55;;;;;;;29.29;53.33;100599.78;5048404;28;20053;-58
2023/08/26 08:25:08;;;;;;;11.45;10.45;;;;;;;29.30;53.01;100600.63;5034116;28;20423;-58
2023/08/26 08:27:39;;;;;;;11.23;10.23;;;;;;;29.31;53.29;100596.84;5045199;28;20402;-58
2023/08/26 08:30:06;;;;;;;11.35;10.35;;;;;;;29.32;53.37;100596.63;5036935;28;20411;-58
2023/08/26 08:32:34;;;;;;;10.32;9.43;;;;;;;29.33;53.58;100597.47;5046419;28;20045;-58
2023/08/26 08:35:03;;;;;;;11.48;10.27;;;;;;;29.34;53.67;100596.44;5041796;28;20045;-58
2023/08/26 08:37:31;;;;;;;10.43;9.52;;;;;;;29.35;53.60;100597.28;5039539;28;20060;-58
2023/08/26 08:39:59;;;;;;;12.57;11.27;;;;;;;29.34;54.86;100596.44;5049914;28;20047;-58
2023/08/26 08:42:30;;;;;;;14.15;12.75;;;;;;;29.34;56.17;100595.59;5041885;28;20053;-58
2023/08/26 08:44:57;;;;;;;13.35;12.10;;;;;;;29.32;56.95;100598.50;5046740;28;20046;-58
2023/08/26 08:47:25;;;;;;;12.57;11.48;;;;;;;29.32;56.13;100596.63;5050183;28;20048;-59
2023/08/26 08:49:54;;;;;;;13.45;12.25;;;;;;;29.31;57.75;100596.84;5040440;28;20048;-59
2023/08/26 08:52:22;;;;;;;13.43;12.10;;;;;;;29.33;58.12;100600.19;5050039;28;20387;-59
2023/08/26 08:54:50;;;;;;;14.65;13.13;;;;;;;29.31;57.32;100594.13;5046089;28;20049;-59
2023/08/26 08:57:28;;;;;;;13.65;12.45;;;;;;;29.32;57.57;100593.06;5042293;28;20045;-59
2023/08/26 08:59:57;;;;;;;15.25;13.77;;;;;;;29.34;59.11;100590.16;5039792;28;20072;-58
2023/08/26 09:02:27;;;;;;;15.38;14.02;;;;;;;29.33;60.00;100589.28;5048774;28;20068;-58
2023/08/26 09:04:56;;;;;;;14.55;13.25;;;;;;;29.34;59.93;100582.81;5047818;28;20527;-58
2023/08/26 09:07:25;;;;;;;14.48;13.15;;;;;;;29.33;59.63;100583.81;5040088;28;20041;-59
2023/08/26 09:09:56;;;;;;;14.50;13.20;;;;;;;29.33;59.66;100594.72;5051060;28;20056;-58
2023/08/26 09:12:30;;;;;;;14.48;13.07;;;;;;;29.32;59.11;100588.44;5045377;28;20049;-60
2023/08/26 09:14:57;;;;;;;15.32;13.90;;;;;;;29.33;59.08;100600.19;5042189;28;20068;-60
2023/08/26 09:17:25;;;;;;;14.48;13.00;;;;;;;29.33;58.85;100589.28;5051377;28;20053;-60
2023/08/26 09:20:00;;;;;;;14.15;12.85;;;;;;;29.32;59.08;100596.63;5041839;28;20048;-61
2023/08/26 09:22:30;;;;;;;14.27;13.00;;;;;;;29.34;58.82;100595.59;5044728;28;20484;-61
2023/08/26 09:25:00;;;;;;;14.60;13.23;;;;;;;29.34;58.49;100598.31;5035853;28;20056;-61
2023/08/26 09:27:28;;;;;;;14.57;13.25;;;;;;;29.35;58.37;100598.13;5035653;28;20492;-60
2023/08/26 09:29:56;;;;;;;14.27;12.77;;;;;;;29.36;58.43;100598.94;5035619;28;20041;-60
2023/08/26 09:32:43;;;;;;;14.38;12.95;;;;;;;29.37;58.15;100595.16;5035574;28;20046;-60
2023/08/26 09:35:13;;;;;;;16.67;14.45;;;;;;;29.37;58.53;100597.91;5035373;28;20052;-60
2023/08/26 09:37:55;;;;;;;15.48;13.88;;;;;;;29.38;57.99;100591.41;5035426;28;20057;-59
2023/08/26 09:40:24;;;;;;;15.63;14.00;;;;;;;29.38;57.87;100594.16;5035397;28;20045;-59
2023/08/26 09:42:52;;;;;;;15.07;13.68;;;;;;;29.40;57.78;100595.59;5035261;28;20042;-59
2023/08/26 09:45:20;;;;;;;14.07;12.80;;;;;;;29.41;57.66;100599.16;5034424;28;20415;-59
2023/08/26 09:47:49;;;;;;;15.27;13.88;;;;;;;29.42;57.24;100596.25;5036603;28;20049;-60
2023/08/26 09:50:30;;;;;;;15.50;13.93;;;;;;;29.43;57.42;100595.19;5035017;28;20045;-59
2023/08/26 09:52:58;;;;;;;14.73;13.32;;;;;;;29.44;56.95;100591.44;5040171;28;20041;-59
2023/08/26 09:55:25;;;;;;;14.55;13.23;;;;;;;29.45;56.95;100584.09;5041877;28;20064;-59
2023/08/26 09:57:53;;;;;;;14.02;12.77;;;;;;;29.46;56.25;100583.91;5041684;28;20052;-59
2023/08/26 10:00:21;;;;;;;15.63;14.23;;;;;;;29.47;56.42;100582.00;5034777;28;20045;-58
2023/08/26 10:02:51;;;;;;;15.32;13.82;;;;;;;29.48;56.43;100570.03;5034409;28;20527;-58
2023/08/26 10:05:23;;;;;;;16.45;14.95;;;;;;;29.49;56.64;100567.13;5035818;28;20045;-59
2023/08/26 10:07:51;;;;;;;17.60;15.80;;;;;;;29.52;56.57;100571.31;5034725;28;20053;-59
2023/08/26 10:10:31;;;;;;;15.32;13.93;;;;;;;29.51;56.48;100569.63;5042872;28;20061;-59
2023/08/26 10:13:05;;;;;;;17.23;15.55;;;;;;;29.50;56.06;100557.88;5044746;28;20052;-59
2023/08/26 10:15:33;;;;;;;15.10;13.70;;;;;;;29.51;55.95;100566.91;5035145;28;20068;-59
2023/08/26 10:18:08;;;;;;;15.43;13.95;;;;;;;29.52;55.51;100561.25;5034649;28;20061;-59
2023/08/26 10:20:36;;;;;;;15.30;13.90;;;;;;;29.53;55.31;100567.53;5035017;28;20887;-59
2023/08/26 10:23:06;;;;;;;15.73;13.98;;;;;;;29.53;54.53;100560.22;5045207;28;20045;-60
2023/08/26 10:25:34;;;;;;;15.15;13.77;;;;;;;29.56;53.70;100556.22;5040253;28;20057;-60
2023/08/26 10:28:03;;;;;;;14.32;13.00;;;;;;;29.56;54.06;100548.91;5049197;28;20049;-60
2023/08/26 10:30:31;;;;;;;14.15;12.60;;;;;;;29.57;53.69;100552.47;5042027;28;20052;-60
2023/08/26 10:33:00;;;;;;;14.55;13.23;;;;;;;29.58;53.46;100558.78;5041700;28;20045;-60
2023/08/26 10:35:29;;;;;;;15.93;14.30;;;;;;;29.59;53.29;100555.00;5034855;28;20060;-60
2023/08/26 10:38:14;;;;;;;14.32;12.93;;;;;;;29.58;52.84;100554.16;5038875;28;20061;-60
2023/08/26 10:40:42;;;;;;;15.70;14.20;;;;;;;29.59;52.93;100544.09;5039637;28;20464;-60
2023/08/26 10:43:12;;;;;;;13.45;12.25;;;;;;;29.60;51.25;100543.03;5050179;28;20431;-60
2023/08/26 10:45:46;;;;;;;13.18;11.90;;;;;;;29.60;50.88;100534.84;5033181;28;20049;-60
2023/08/26 10:48:14;;;;;;;13.63;12.20;;;;;;;29.62;50.95;100543.69;5042261;28;20056;-56
2023/08/26 10:50:46;;;;;;;13.70;12.40;;;;;;;29.60;50.85;100532.97;5034317;28;20480;-56
2023/08/26 10:53:21;;;;;;;14.77;13.38;;;;;;;29.62;50.79;100533.59;5037836;28;20046;-57
2023/08/26 10:55:54;;;;;;;13.27;12.05;;;;;;;29.61;50.25;100533.81;5038413;28;20048;-57
2023/08/26 10:58:22;;;;;;;12.65;11.55;;;;;;;29.63;50.08;100534.44;5036607;28;20053;-61
2023/08/26 11:00:51;;;;;;;13.27;12.07;;;;;;;29.64;49.72;100527.94;5046926;28;20041;-61
2023/08/26 11:03:20;;;;;;;12.52;11.25;;;;;;;29.65;49.76;100532.34;5033951;28;20037;-59
2023/08/26 11:06:01;;;;;;;13.82;12.57;;;;;;;29.65;49.67;100521.41;5033707;28;20038;-60
2023/08/26 11:08:28;;;;;;;12.60;11.40;;;;;;;29.66;48.91;100523.97;5045925;28;20045;-60
2023/08/26 11:10:56;;;;;;;13.75;12.30;;;;;;;29.67;48.63;100522.06;5037833;28;20073;-60
2023/08/26 11:13:23;;;;;;;13.50;11.90;;;;;;;29.67;48.68;100514.72;5038966;28;20045;-59
2023/08/26 11:15:52;;;;;;;12.55;11.45;;;;;;;29.68;48.82;100516.41;5033036;28;20041;-60
2023/08/26 11:18:21;;;;;;;12.73;11.52;;;;;;;29.70;47.92;100516.22;5034032;28;20056;-58
2023/08/26 11:20:49;;;;;;;12.75;11.50;;;;;;;29.71;47.06;100521.44;5033472;28;20052;-56